Adventure Hornblower — WDA3017 — position and weather

sailwx.info

Track history (hours):
 
Tides and Currents Weather Stations Pressure Air Temp Water Temp Dewpoint Dewpoint Depression Visibility Wind Speed Wind Dir Waves Ship Positions

Adventure Hornblower

Owner: Hornblower Cruises and Events, San Diego, CA. More information available from US FCC via Universal Licensing System and Coast Guard Vessel Documentation Center.

Last reported at 2017-Oct-28 00:42 UTC. Time now 2017-Nov-23 10:56 UTC.
Position N 32°37' W 117°16'.
Warning: this ship's position is 26 days out of date.

Length 49 m; draft 1.8 m.

Type: Passenger vessel. MMSI: 366793760.

Date/timePositionNaut miles runAvg speedWind from/ knotsBaromVisibWave heightAir tempDewpointWater temp
2017-Oct-28 00:42N 32°37' W 117°16'413.6
2017-Oct-28 00:24N 32°40' W 117°17'513.4
2017-Oct-28 00:00N 32°46' W 117°18'713.2
2017-Oct-27 23:30N 32°52' W 117°20'713.8
2017-Oct-27 23:00N 32°59' W 117°22'713.7
2017-Oct-27 22:30N 33°05' W 117°24'713.2
2017-Oct-27 22:00N 33°12' W 117°25'4 8.2
2017-Oct-27 21:30N 33°13' W 117°30'1 2.1
2017-Oct-27 21:00N 33°13' W 117°29'4 7.1
2017-Oct-27 20:30N 33°12' W 117°25'0 0.2
2017-Oct-27 20:00N 33°12' W 117°25'0 0.2
2017-Oct-27 19:30N 33°12' W 117°25'3 7.0
2017-Oct-27 19:00N 33°08' W 117°24'713.2
2017-Oct-27 18:30N 33°02' W 117°22'713.2
2017-Oct-27 18:00N 32°55' W 117°20'713.3
2017-Oct-27 17:30N 32°49' W 117°19'1212.7
2017-Oct-27 16:34N 32°37' W 117°16'312.4
2017-Oct-27 16:20N 32°39' W 117°14'410.8
2017-Oct-27 15:59N 32°43' W 117°13'2 3.1
2017-Oct-27 15:25N 32°43' W 117°10'0 0.0
2017-Oct-27 14:59N 32°43' W 117°10'0 0.0
2017-Oct-27 14:30N 32°43' W 117°10'0 0.0
2017-Oct-27 13:59N 32°43' W 117°10'0 0.0
2017-Oct-27 13:30N 32°43' W 117°10'0 0.0
2017-Oct-27 06:08N 32°43' W 117°10'0 0.0
2017-Oct-27 05:59N 32°43' W 117°10'4 8.6
2017-Oct-27 05:29N 32°40' W 117°14'6 7.1
2017-Oct-27 04:38N 32°44' W 117°19'213.1
2017-Oct-27 04:30N 32°45' W 117°20'713.3
2017-Oct-27 04:00N 32°51' W 117°23'713.7
2017-Oct-27 03:30N 32°58' W 117°26'713.6
2017-Oct-27 03:00N 33°05' W 117°26'2 3.3
2017-Oct-27 02:30N 33°06' W 117°26'1 2.5
2017-Oct-27 02:00N 33°05' W 117°24'510.5
2017-Oct-27 01:30N 33°11' W 117°26'1 2.0
2017-Oct-27 01:00N 33°12' W 117°25'0 0.1
2017-Oct-27 00:30N 33°11' W 117°25'1 1.9
2017-Oct-27 00:00N 33°11' W 117°26'1 2.5
2017-Oct-26 23:29N 33°10' W 117°25'0 0.3
2017-Oct-26 22:59N 33°10' W 117°25'0 0.9
2017-Oct-26 22:31N 33°10' W 117°25'1 1.3
2017-Oct-26 21:58N 33°10' W 117°24'0 0.6
2017-Oct-26 21:30N 33°10' W 117°24'0 0.6
2017-Oct-26 20:59N 33°11' W 117°24'0 0.4
2017-Oct-26 20:30N 33°11' W 117°24'0 0.6
2017-Oct-26 20:00N 33°11' W 117°25'0 0.1
2017-Oct-26 19:29N 33°11' W 117°25'0 0.5
2017-Oct-26 18:59N 33°11' W 117°25'2 4.1
2017-Oct-26 18:30N 33°09' W 117°24'713.0
2017-Oct-26 18:00N 33°03' W 117°22'612.9
2017-Oct-26 17:30N 32°56' W 117°21'713.3
2017-Oct-26 17:00N 32°50' W 117°19'  
2017-Oct-18 17:29N 32°42' W 117°14'3 3.7
2017-Oct-18 16:38N 32°43' W 117°11'0 0.8
2017-Oct-18 16:04N 32°43' W 117°10'0 0.0
2017-Oct-18 15:59N 32°43' W 117°10'0 0.0
2017-Oct-18 04:27N 32°43' W 117°10'1 1.6
2017-Oct-18 03:48N 32°43' W 117°12'2 5.5
2017-Oct-18 03:27N 32°42' W 117°10'1 1.5
2017-Oct-18 03:00N 32°42' W 117°10'3 6.1
2017-Oct-18 02:30N 32°43' W 117°13'  
Track history (hours):
 
Tides and Currents Weather Stations Pressure Air Temp Water Temp Dewpoint Dewpoint Depression Visibility Wind Speed Wind Dir Waves Ship Positions

Adventure Hornblower

Owner: Hornblower Cruises and Events, San Diego, CA. More information available from US FCC via Universal Licensing System and Coast Guard Vessel Documentation Center.

Last reported at 2017-Oct-28 00:42 UTC. Time now 2017-Nov-23 10:56 UTC.
Position N 32°37' W 117°16'.
Warning: this ship's position is 26 days out of date.

Length 49 m; draft 1.8 m.

Type: Passenger vessel. MMSI: 366793760.

Date/timePositionNaut miles runAvg speedWind from/ knotsBaromVisibWave heightAir tempDewpointWater temp
2017-Oct-28 00:42N 32°37' W 117°16'413.6
2017-Oct-28 00:24N 32°40' W 117°17'513.4
2017-Oct-28 00:00N 32°46' W 117°18'713.2
2017-Oct-27 23:30N 32°52' W 117°20'713.8
2017-Oct-27 23:00N 32°59' W 117°22'713.7
2017-Oct-27 22:30N 33°05' W 117°24'713.2
2017-Oct-27 22:00N 33°12' W 117°25'4 8.2
2017-Oct-27 21:30N 33°13' W 117°30'1 2.1
2017-Oct-27 21:00N 33°13' W 117°29'4 7.1
2017-Oct-27 20:30N 33°12' W 117°25'0 0.2
2017-Oct-27 20:00N 33°12' W 117°25'0 0.2
2017-Oct-27 19:30N 33°12' W 117°25'3 7.0
2017-Oct-27 19:00N 33°08' W 117°24'713.2
2017-Oct-27 18:30N 33°02' W 117°22'713.2
2017-Oct-27 18:00N 32°55' W 117°20'713.3
2017-Oct-27 17:30N 32°49' W 117°19'1212.7
2017-Oct-27 16:34N 32°37' W 117°16'312.4
2017-Oct-27 16:20N 32°39' W 117°14'410.8
2017-Oct-27 15:59N 32°43' W 117°13'2 3.1
2017-Oct-27 15:25N 32°43' W 117°10'0 0.0
2017-Oct-27 14:59N 32°43' W 117°10'0 0.0
2017-Oct-27 14:30N 32°43' W 117°10'0 0.0
2017-Oct-27 13:59N 32°43' W 117°10'0 0.0
2017-Oct-27 13:30N 32°43' W 117°10'0 0.0
2017-Oct-27 06:08N 32°43' W 117°10'0 0.0
2017-Oct-27 05:59N 32°43' W 117°10'4 8.6
2017-Oct-27 05:29N 32°40' W 117°14'6 7.1
2017-Oct-27 04:38N 32°44' W 117°19'213.1
2017-Oct-27 04:30N 32°45' W 117°20'713.3
2017-Oct-27 04:00N 32°51' W 117°23'713.7
2017-Oct-27 03:30N 32°58' W 117°26'713.6
2017-Oct-27 03:00N 33°05' W 117°26'2 3.3
2017-Oct-27 02:30N 33°06' W 117°26'1 2.5
2017-Oct-27 02:00N 33°05' W 117°24'510.5
2017-Oct-27 01:30N 33°11' W 117°26'1 2.0
2017-Oct-27 01:00N 33°12' W 117°25'0 0.1
2017-Oct-27 00:30N 33°11' W 117°25'1 1.9
2017-Oct-27 00:00N 33°11' W 117°26'1 2.5
2017-Oct-26 23:29N 33°10' W 117°25'0 0.3
2017-Oct-26 22:59N 33°10' W 117°25'0 0.9
2017-Oct-26 22:31N 33°10' W 117°25'1 1.3
2017-Oct-26 21:58N 33°10' W 117°24'0 0.6
2017-Oct-26 21:30N 33°10' W 117°24'0 0.6
2017-Oct-26 20:59N 33°11' W 117°24'0 0.4
2017-Oct-26 20:30N 33°11' W 117°24'0 0.6
2017-Oct-26 20:00N 33°11' W 117°25'0 0.1
2017-Oct-26 19:29N 33°11' W 117°25'0 0.5
2017-Oct-26 18:59N 33°11' W 117°25'2 4.1
2017-Oct-26 18:30N 33°09' W 117°24'713.0
2017-Oct-26 18:00N 33°03' W 117°22'612.9
2017-Oct-26 17:30N 32°56' W 117°21'713.3
2017-Oct-26 17:00N 32°50' W 117°19'  
2017-Oct-18 17:29N 32°42' W 117°14'3 3.7
2017-Oct-18 16:38N 32°43' W 117°11'0 0.8
2017-Oct-18 16:04N 32°43' W 117°10'0 0.0
2017-Oct-18 15:59N 32°43' W 117°10'0 0.0
2017-Oct-18 04:27N 32°43' W 117°10'1 1.6
2017-Oct-18 03:48N 32°43' W 117°12'2 5.5
2017-Oct-18 03:27N 32°42' W 117°10'1 1.5
2017-Oct-18 03:00N 32°42' W 117°10'3 6.1
2017-Oct-18 02:30N 32°43' W 117°13'  

Dump ship's entire track history